Terminal Aerodrome Forecast
Issued by NWS

Home | Current Version | Previous Version | Text Only | Print | Product List | Glossary On
Versions: 1 2 3 4 5 6 7 8 9 10 11 12 13 14 15 16 17 18 19
386
FTUS45 KFGZ 171511 AAA
TAFPRC
TAF AMD
KPRC 171511Z 1715/1812 VRB03KT 6SM BR OVC005
      TEMPO 1715/1717 2SM BR
     FM171700 VRB04KT P6SM FEW005 BKN100=

USA.gov is the U.S. government's official web portal to all federal, state and local government web resources and services.